Time;durP1;ratioP1;P1;durP2;ratioP2;P2;SDS_P1;SDS_P2;PMS_P1;PMS_P2;Temp;Humidity;BMP_temperature;BMP_pressure;BME280_temperature;BME280_humidity;BME280_pressure;Samples;Min_cycle;Max_cycle;Signal;HPM_P1;HPM_P2
2023/04/25 00:00:23;;;;;;;;;;;;;;;12.26;79.47;98899.81;4463801;32;33688;-77
2023/04/25 00:02:51;;;;;;;;;;;;;;;12.25;79.41;98901.56;4446990;32;34951;-77
2023/04/25 00:05:19;;;;;;;;;;;;;;;12.13;80.30;98891.75;4465449;32;34872;-76
2023/04/25 00:07:46;;;;;;;;;;;;;;;12.26;79.79;98892.91;4452379;32;35541;-76
2023/04/25 00:10:14;;;;;;;;;;;;;;;12.35;79.03;98876.66;4457027;32;33525;-76
2023/04/25 00:12:41;;;;;;;;;;;;;;;12.08;80.01;98876.91;4446149;32;34111;-77
2023/04/25 00:15:09;;;;;;;;;;;;;;;12.17;79.93;98877.12;4456211;32;34241;-77
2023/04/25 00:17:38;;;;;;;;;;;;;;;12.14;80.10;98877.03;4460643;32;35377;-77
2023/04/25 00:20:07;;;;;;;;;;;;;;;12.20;79.74;98872.84;4453729;32;33705;-76
2023/04/25 00:22:34;;;;;;;;;;;;;;;12.16;79.88;98871.03;4451853;32;34078;-76
2023/04/25 00:25:03;;;;;;;;;;;;;;;12.30;79.63;98868.75;4453827;32;34073;-77
2023/04/25 00:27:30;;;;;;;;;;;;;;;12.41;79.07;98870.75;4443754;32;34140;-76
2023/04/25 00:29:58;;;;;;;;;;;;;;;12.47;78.95;98860.47;4459542;32;34383;-76
2023/04/25 00:32:25;;;;;;;;;;;;;;;12.30;79.24;98863.56;4442631;32;34528;-76
2023/04/25 00:34:52;;;;;;;;;;;;;;;12.18;80.05;98868.47;4455952;32;34062;-76
2023/04/25 00:37:19;;;;;;;;;;;;;;;12.24;79.55;98863.44;4454161;32;34354;-75
2023/04/25 00:39:47;;;;;;;;;;;;;;;12.23;79.87;98861.69;4454161;32;34118;-76
2023/04/25 00:42:14;;;;;;;;;;;;;;;12.38;79.65;98867.22;4457585;32;33606;-76
2023/04/25 00:44:42;;;;;;;;;;;;;;;12.54;79.00;98857.19;4450655;32;35727;-76
2023/04/25 00:47:10;;;;;;;;;;;;;;;12.76;77.78;98850.72;4453257;32;35286;-75
2023/04/25 00:49:37;;;;;;;;;;;;;;;12.71;78.24;98855.81;4472009;32;33867;-77
2023/04/25 00:52:04;;;;;;;;;;;;;;;12.57;78.96;98847.75;4456404;32;34070;-76
2023/04/25 00:54:32;;;;;;;;;;;;;;;12.47;79.73;98844.91;4444007;32;33844;-77
2023/04/25 00:57:00;;;;;;;;;;;;;;;12.48;79.85;98844.94;4447026;32;34428;-78
2023/04/25 00:59:28;;;;;;;;;;;;;;;12.34;80.35;98844.63;4449763;32;33689;-76
2023/04/25 01:01:55;;;;;;;;;;;;;;;12.55;79.82;98844.19;4439982;32;34340;-76
2023/04/25 01:04:22;;;;;;;;;;;;;;;12.62;79.09;98840.03;4455079;32;34272;-75
2023/04/25 01:06:50;;;;;;;;;;;;;;;12.36;80.07;98840.34;4455482;32;34798;-76
2023/04/25 01:09:18;;;;;;;;;;;;;;;12.25;80.62;98839.22;4461431;32;34168;-78
2023/04/25 01:11:45;;;;;;;;;;;;;;;12.07;81.66;98839.69;4444669;32;33641;-77
2023/04/25 01:14:12;;;;;;;;;;;;;;;12.05;80.94;98830.09;4425175;32;872394;-76
2023/04/25 01:16:41;;;;;;;;;;;;;;;11.83;82.04;98845.13;4460259;32;34504;-76
2023/04/25 01:19:10;;;;;;;;;;;;;;;12.01;81.04;98834.34;4455400;32;33720;-77
2023/04/25 01:21:38;;;;;;;;;;;;;;;12.24;79.80;98834.00;4443097;32;34007;-77
2023/04/25 01:24:05;;;;;;;;;;;;;;;12.25;79.19;98833.16;4428341;32;32312;-77
2023/04/25 01:26:33;;;;;;;;;;;;;;;12.18;79.10;98839.94;4450733;32;34672;-76
2023/04/25 01:29:00;;;;;;;;;;;;;;;12.25;78.96;98844.44;4446843;32;33610;-77
2023/04/25 01:31:27;;;;;;;;;;;;;;;12.19;77.66;98836.50;4436643;32;34897;-76
2023/04/25 01:33:55;;;;;;;;;;;;;;;12.05;77.59;98840.47;4456407;32;34019;-75
2023/04/25 01:36:22;;;;;;;;;;;;;;;12.04;76.99;98838.75;4451121;32;33993;-76
2023/04/25 01:38:49;;;;;;;;;;;;;;;12.05;76.91;98837.88;4445612;32;33620;-76
2023/04/25 01:41:17;;;;;;;;;;;;;;;11.78;77.61;98829.47;4445932;32;33771;-75
2023/04/25 01:43:45;;;;;;;;;;;;;;;12.07;76.16;98836.19;4452883;32;33867;-77
2023/04/25 01:46:13;;;;;;;;;;;;;;;12.08;75.51;98835.37;4455410;32;34276;-76
2023/04/25 01:48:40;;;;;;;;;;;;;;;11.94;75.77;98840.25;4445410;32;33419;-76
2023/04/25 01:51:07;;;;;;;;;;;;;;;11.94;75.32;98830.72;4435278;32;33539;-77
2023/04/25 01:53:35;;;;;;;;;;;;;;;11.87;76.33;98831.38;4455526;32;35089;-77
2023/04/25 01:56:03;;;;;;;;;;;;;;;11.71;76.38;98834.47;4450365;32;35097;-76
2023/04/25 01:58:32;;;;;;;;;;;;;;;11.77;75.71;98835.47;4461760;32;33106;-77
2023/04/25 02:01:00;;;;;;;;;;;;;;;12.00;74.56;98849.03;4454287;32;34963;-76
2023/04/25 02:03:30;;;;;;;;;;;;;;;11.85;74.83;98848.63;4454519;32;34747;-77
2023/04/25 02:05:58;;;;;;;;;;;;;;;11.85;75.00;98846.03;4437567;32;34126;-78
2023/04/25 02:08:26;;;;;;;;;;;;;;;11.95;74.36;98842.84;4458213;32;33631;-75
2023/04/25 02:10:54;;;;;;;;;;;;;;;12.03;73.79;98848.22;4458133;32;33900;-76
2023/04/25 02:13:22;;;;;;;;;;;;;;;11.80;74.27;98834.66;4460818;32;34117;-75
2023/04/25 02:15:49;;;;;;;;;;;;;;;11.90;74.35;98847.06;4468763;32;34372;-77
2023/04/25 02:18:17;;;;;;;;;;;;;;;12.01;73.49;98839.53;4465242;32;33941;-77
2023/04/25 02:20:45;;;;;;;;;;;;;;;11.80;74.11;98845.94;4474199;32;34248;-76
2023/04/25 02:23:12;;;;;;;;;;;;;;;11.68;74.26;98835.25;4478464;32;34117;-76
2023/04/25 02:25:39;;;;;;;;;;;;;;;11.75;74.04;98841.47;4454565;32;34253;-76
2023/04/25 02:28:07;;;;;;;;;;;;;;;11.76;74.10;98844.13;4470328;32;33450;-76
2023/04/25 02:30:35;;;;;;;;;;;;;;;11.78;73.25;98837.25;4473125;32;34154;-76
2023/04/25 02:33:04;;;;;;;;;;;;;;;11.90;73.45;98839.28;4469800;32;34806;-76
2023/04/25 02:35:32;;;;;;;;;;;;;;;11.77;73.69;98839.78;4469235;32;34690;-76
2023/04/25 02:37:59;;;;;;;;;;;;;;;11.73;73.58;98833.66;4469605;32;33605;-77
2023/04/25 02:40:27;;;;;;;;;;;;;;;11.60;74.39;98834.19;4462440;32;34641;-77
2023/04/25 02:42:54;;;;;;;;;;;;;;;11.69;73.70;98841.34;4460187;32;34941;-77
2023/04/25 02:45:23;;;;;;;;;;;;;;;11.80;73.50;98839.84;4463423;32;34125;-78
2023/04/25 02:47:50;;;;;;;;;;;;;;;11.82;72.59;98840.81;4456085;32;34115;-78
2023/04/25 02:50:18;;;;;;;;;;;;;;;11.77;72.85;98832.00;4467329;32;34097;-77
2023/04/25 02:52:46;;;;;;;;;;;;;;;11.46;73.50;98844.22;4456035;32;34642;-75
2023/04/25 02:55:14;;;;;;;;;;;;;;;11.48;73.78;98837.34;4475907;32;34307;-76
2023/04/25 02:57:43;;;;;;;;;;;;;;;11.64;73.22;98837.75;4471419;32;34153;-75
2023/04/25 03:00:11;;;;;;;;;;;;;;;11.46;73.67;98841.63;4453888;32;33911;-76
2023/04/25 03:02:39;;;;;;;;;;;;;;;11.39;73.47;98832.78;4453179;32;34253;-75
2023/04/25 03:05:07;;;;;;;;;;;;;;;11.35;74.20;98837.88;4454856;32;34051;-78
2023/04/25 03:07:35;;;;;;;;;;;;;;;11.70;72.62;98832.69;4466762;32;33804;-76
2023/04/25 03:10:02;;;;;;;;;;;;;;;11.34;73.24;98833.53;4467799;32;33964;-75
2023/04/25 03:12:30;;;;;;;;;;;;;;;11.25;73.88;98833.28;4472153;32;34973;-78
2023/04/25 03:14:57;;;;;;;;;;;;;;;11.45;73.66;98845.03;4464821;32;35099;-79
2023/04/25 03:17:24;;;;;;;;;;;;;;;11.52;72.82;98823.62;4467358;32;33701;-76
2023/04/25 03:19:52;;;;;;;;;;;;;;;11.28;73.67;98834.25;4453583;32;32498;-79
2023/04/25 03:22:19;;;;;;;;;;;;;;;11.55;72.98;98836.69;4467518;32;35155;-78
2023/04/25 03:24:47;;;;;;;;;;;;;;;11.14;74.52;98828.69;4454678;32;34017;-77
2023/04/25 03:27:15;;;;;;;;;;;;;;;11.21;74.34;98837.50;4466459;32;34418;-77
2023/04/25 03:29:42;;;;;;;;;;;;;;;11.17;74.83;98836.53;4467616;32;34116;-77
2023/04/25 03:32:10;;;;;;;;;;;;;;;11.08;74.86;98831.09;4453903;32;32652;-77
2023/04/25 03:34:38;;;;;;;;;;;;;;;11.27;74.46;98841.97;4468198;32;34441;-77
2023/04/25 03:37:06;;;;;;;;;;;;;;;11.13;75.11;98839.03;4466574;32;33385;-75
2023/04/25 03:39:34;;;;;;;;;;;;;;;11.12;75.12;98835.53;4468421;32;34065;-75
2023/04/25 03:42:02;;;;;;;;;;;;;;;11.19;75.35;98839.19;4467811;32;33990;-74
2023/04/25 03:44:30;;;;;;;;;;;;;;;11.33;75.08;98832.63;4456557;32;33890;-76
2023/04/25 03:46:58;;;;;;;;;;;;;;;11.41;74.52;98836.34;4467470;32;33715;-75
2023/04/25 03:49:26;;;;;;;;;;;;;;;11.12;75.91;98842.44;4466841;32;34773;-74
2023/04/25 03:51:53;;;;;;;;;;;;;;;10.85;77.23;98842.56;4467011;32;34710;-75
2023/04/25 03:54:21;;;;;;;;;;;;;;;10.57;78.42;98840.06;4465748;32;34505;-74
2023/04/25 03:56:49;;;;;;;;;;;;;;;10.84;77.74;98851.19;4458638;32;34235;-75
2023/04/25 03:59:17;;;;;;;;;;;;;;;10.71;78.39;98840.44;4467149;32;33915;-75
2023/04/25 04:01:44;;;;;;;;;;;;;;;10.57;78.86;98855.59;4468097;32;34931;-75
2023/04/25 04:04:12;;;;;;;;;;;;;;;10.91;77.78;98848.78;4452909;32;33488;-73
2023/04/25 04:06:40;;;;;;;;;;;;;;;10.88;78.28;98853.88;4467639;32;33170;-73
2023/04/25 04:09:10;;;;;;;;;;;;;;;10.87;78.18;98851.25;4467918;32;33623;-77
2023/04/25 04:11:39;;;;;;;;;;;;;;;10.86;78.85;98855.56;4467389;32;34958;-76
2023/04/25 04:14:06;;;;;;;;;;;;;;;10.73;78.80;98854.31;4446446;32;33760;-74
2023/04/25 04:16:34;;;;;;;;;;;;;;;10.80;78.88;98847.63;4475566;32;34230;-76
2023/04/25 04:19:02;;;;;;;;;;;;;;;10.58;80.25;98866.81;4467093;32;34980;-74
2023/04/25 04:21:29;;;;;;;;;;;;;;;10.58;80.51;98865.09;4467491;32;34607;-76
2023/04/25 04:23:57;;;;;;;;;;;;;;;10.57;80.77;98867.66;4468747;32;33960;-75
2023/04/25 04:26:25;;;;;;;;;;;;;;;10.60;81.38;98875.50;4476840;32;33406;-74
2023/04/25 04:28:54;;;;;;;;;;;;;;;10.58;82.06;98872.00;4468789;32;33939;-76
2023/04/25 04:31:21;;;;;;;;;;;;;;;10.66;81.48;98869.62;4459620;32;34014;-75
2023/04/25 04:33:50;;;;;;;;;;;;;;;10.48;82.85;98873.44;4466795;32;34538;-75
2023/04/25 04:36:21;;;;;;;;;;;;;;;10.60;83.21;98872.91;4467723;32;33997;-74
2023/04/25 04:38:49;;;;;;;;;;;;;;;10.38;84.59;98877.47;4470146;32;34080;-74
2023/04/25 04:41:19;;;;;;;;;;;;;;;10.33;84.86;98879.00;4477875;32;33830;-75
2023/04/25 04:43:48;;;;;;;;;;;;;;;10.14;86.33;98871.47;4473440;32;34029;-76
2023/04/25 04:46:18;;;;;;;;;;;;;;;10.11;86.47;98876.56;4479062;32;33055;-74
2023/04/25 04:48:45;;;;;;;;;;;;;;;10.22;87.59;98889.03;4469182;32;34257;-76
2023/04/25 04:51:14;;;;;;;;;;;;;;;10.23;87.78;98882.13;4474735;32;34116;-75
2023/04/25 04:53:42;;;;;;;;;;;;;;;10.07;88.93;98879.91;4468486;32;34039;-76
2023/04/25 04:56:10;;;;;;;;;;;;;;;10.06;89.00;98883.31;4474541;32;33486;-75
2023/04/25 04:58:41;;;;;;;;;;;;;;;9.92;90.32;98875.97;4454350;32;34658;-76
2023/04/25 05:01:09;;;;;;;;;;;;;;;9.96;90.75;98880.41;4463478;32;33851;-76
2023/04/25 05:03:37;;;;;;;;;;;;;;;9.91;90.95;98889.75;4455593;32;34584;-76
2023/04/25 05:06:05;;;;;;;;;;;;;;;9.99;91.18;98877.06;4476947;32;34445;-76
2023/04/25 05:08:33;;;;;;;;;;;;;;;9.87;91.75;98885.31;4458791;32;34022;-76
2023/04/25 05:11:01;;;;;;;;;;;;;;;9.82;92.54;98885.12;4471374;32;34901;-76
2023/04/25 05:13:30;;;;;;;;;;;;;;;9.49;95.31;98878.84;4466451;32;34537;-77
2023/04/25 05:15:58;;;;;;;;;;;;;;;9.76;94.03;98868.56;4456469;32;33075;-76
2023/04/25 05:18:26;;;;;;;;;;;;;;;9.73;94.42;98878.78;4455168;32;34009;-76
2023/04/25 05:20:54;;;;;;;;;;;;;;;9.69;95.19;98877.81;4468652;32;33802;-77
2023/04/25 05:23:22;;;;;;;;;;;;;;;9.70;95.41;98876.12;4460962;32;34152;-77
2023/04/25 05:25:49;;;;;;;;;;;;;;;9.67;95.87;98881.19;4454032;32;33654;-78
2023/04/25 05:28:17;;;;;;;;;;;;;;;9.60;95.65;98877.47;4458743;32;34073;-77
2023/04/25 05:30:44;;;;;;;;;;;;;;;9.47;97.02;98878.81;4455251;32;34490;-80
2023/04/25 05:33:13;;;;;;;;;;;;;;;9.42;97.54;98875.16;4453315;32;34303;-76
2023/04/25 05:35:41;;;;;;;;;;;;;;;9.42;97.50;98882.91;4457743;32;33752;-77
2023/04/25 05:38:10;;;;;;;;;;;;;;;9.52;96.93;98877.25;4446329;32;34857;-76
2023/04/25 05:40:38;;;;;;;;;;;;;;;9.25;98.15;98885.81;4452716;32;34971;-75
2023/04/25 05:43:06;;;;;;;;;;;;;;;9.58;96.79;98874.88;4452432;32;35254;-77
2023/04/25 05:45:33;;;;;;;;;;;;;;;9.46;98.36;98874.44;4453985;32;33495;-76
2023/04/25 05:48:01;;;;;;;;;;;;;;;9.47;97.97;98881.37;4455801;32;34053;-77
2023/04/25 05:50:29;;;;;;;;;;;;;;;9.43;97.47;98875.22;4452567;32;32943;-76
2023/04/25 05:52:56;;;;;;;;;;;;;;;9.55;99.17;98889.41;4453224;32;34048;-76
2023/04/25 05:55:24;;;;;;;;;;;;;;;9.71;97.44;98889.06;4452175;32;33491;-77
2023/04/25 05:57:52;;;;;;;;;;;;;;;9.70;96.64;98876.12;4455134;32;33801;-76
2023/04/25 06:00:21;;;;;;;;;;;;;;;9.73;96.96;98883.97;4452642;32;34293;-76
2023/04/25 06:02:48;;;;;;;;;;;;;;;9.88;96.15;98878.44;4452994;32;34279;-76
2023/04/25 06:05:16;;;;;;;;;;;;;;;9.91;96.62;98879.41;4451766;32;31432;-75
2023/04/25 06:07:44;;;;;;;;;;;;;;;9.83;96.31;98886.91;4452674;32;34173;-76
2023/04/25 06:10:12;;;;;;;;;;;;;;;9.83;96.44;98886.00;4451512;32;33612;-76
2023/04/25 06:12:39;;;;;;;;;;;;;;;9.80;95.06;98885.94;4452377;32;34150;-76
2023/04/25 06:15:07;;;;;;;;;;;;;;;9.84;95.44;98887.78;4458943;32;32961;-76
2023/04/25 06:17:54;;;;;;;;;;;;;;;9.76;94.97;98876.31;4467555;32;33614;-76
2023/04/25 06:20:23;;;;;;;;;;;;;;;9.80;94.03;98878.16;4467290;32;33925;-74
2023/04/25 06:22:52;;;;;;;;;;;;;;;9.89;94.55;98875.91;4459792;32;35137;-75
2023/04/25 06:25:20;;;;;;;;;;;;;;;10.01;92.73;98885.75;4468764;32;33298;-76
2023/04/25 06:27:48;;;;;;;;;;;;;;;10.22;92.00;98885.56;4454648;32;33861;-75
2023/04/25 06:30:18;;;;;;;;;;;;;;;10.43;91.02;98877.62;4469714;32;34028;-76
2023/04/25 06:32:45;;;;;;;;;;;;;;;10.28;90.42;98885.75;4468703;32;34574;-75
2023/04/25 06:35:13;;;;;;;;;;;;;;;10.29;89.23;98887.50;4456285;32;33194;-76
2023/04/25 06:37:41;;;;;;;;;;;;;;;10.42;89.78;98879.31;4469360;32;34680;-76
2023/04/25 06:40:08;;;;;;;;;;;;;;;10.28;90.03;98885.75;4457030;32;34225;-76
2023/04/25 06:42:35;;;;;;;;;;;;;;;10.58;87.21;98880.63;4470001;32;34379;-75
2023/04/25 06:45:04;;;;;;;;;;;;;;;10.57;86.67;98872.84;4468826;32;33278;-77
2023/04/25 06:47:31;;;;;;;;;;;;;;;10.50;86.81;98876.06;4468711;32;33983;-77
2023/04/25 06:49:59;;;;;;;;;;;;;;;10.77;86.53;98882.06;4467325;32;34121;-76
2023/04/25 06:52:27;;;;;;;;;;;;;;;10.80;85.84;98876.97;4466394;32;33713;-76
2023/04/25 06:54:54;;;;;;;;;;;;;;;10.77;85.12;98869.12;4469566;32;34388;-75
2023/04/25 06:57:23;;;;;;;;;;;;;;;11.16;85.93;98881.47;4467377;32;34258;-76
2023/04/25 06:59:51;;;;;;;;;;;;;;;11.39;84.27;98873.41;4468963;32;34678;-76
2023/04/25 07:02:18;;;;;;;;;;;;;;;11.42;83.31;98873.50;4469422;32;35084;-76
2023/04/25 07:04:46;;;;;;;;;;;;;;;11.43;83.10;98885.63;4469373;32;33560;-75
2023/04/25 07:07:14;;;;;;;;;;;;;;;11.75;83.59;98893.38;4468508;32;34010;-76
2023/04/25 07:09:42;;;;;;;;;;;;;;;12.08;82.49;98884.69;4467742;32;33912;-77
2023/04/25 07:12:09;;;;;;;;;;;;;;;11.78;80.93;98876.16;4468791;32;34758;-76
2023/04/25 07:14:36;;;;;;;;;;;;;;;12.19;81.38;98885.84;4469380;32;33051;-75
2023/04/25 07:17:06;;;;;;;;;;;;;;;12.12;79.88;98886.53;4457834;32;33788;-76
2023/04/25 07:19:34;;;;;;;;;;;;;;;12.13;79.70;98880.47;4455110;32;34271;-76
2023/04/25 07:22:01;;;;;;;;;;;;;;;12.06;78.11;98886.38;4469313;32;33844;-75
2023/04/25 07:24:29;;;;;;;;;;;;;;;12.35;78.10;98881.88;4468761;32;33206;-75
2023/04/25 07:26:57;;;;;;;;;;;;;;;12.54;80.20;98883.16;4468374;32;34240;-75
2023/04/25 07:29:25;;;;;;;;;;;;;;;12.46;77.31;98892.47;4468189;32;34843;-76
2023/04/25 07:31:53;;;;;;;;;;;;;;;12.37;76.57;98881.03;4469343;32;35090;-77
2023/04/25 07:34:20;;;;;;;;;;;;;;;11.80;78.77;98884.88;4469834;32;33396;-76
2023/04/25 07:36:48;;;;;;;;;;;;;;;12.39;75.86;98881.97;4465855;32;34020;-75
2023/04/25 07:39:16;;;;;;;;;;;;;;;12.66;76.82;98896.41;4460065;32;34270;-77
2023/04/25 07:41:43;;;;;;;;;;;;;;;12.47;74.77;98889.06;4468832;32;35096;-75
2023/04/25 07:44:11;;;;;;;;;;;;;;;12.56;75.47;98891.88;4467912;32;33695;-76
2023/04/25 07:46:39;;;;;;;;;;;;;;;12.74;73.10;98886.19;4467689;32;34183;-76
2023/04/25 07:49:07;;;;;;;;;;;;;;;12.41;74.03;98891.50;4455831;32;34033;-75
2023/04/25 07:51:34;;;;;;;;;;;;;;;12.16;76.39;98897.00;4469784;32;34486;-75
2023/04/25 07:54:02;;;;;;;;;;;;;;;12.69;74.37;98896.47;4467902;32;33621;-75
2023/04/25 07:56:30;;;;;;;;;;;;;;;12.60;74.34;98893.69;4466012;32;34347;-75
2023/04/25 07:59:17;;;;;;;;;;;;;;;12.89;72.12;98890.84;4467138;32;33803;-77
2023/04/25 08:01:44;;;;;;;;;;;;;;;12.91;72.80;98883.94;4468018;32;34272;-76
2023/04/25 08:04:12;;;;;;;;;;;;;;;12.94;72.14;98883.97;4469797;32;33338;-77
2023/04/25 08:06:42;;;;;;;;;;;;;;;12.79;71.32;98885.44;4468702;32;34008;-75
2023/04/25 08:09:11;;;;;;;;;;;;;;;12.73;72.39;98894.84;4456245;32;33976;-75
2023/04/25 08:11:39;;;;;;;;;;;;;;;12.82;72.06;98892.41;4469132;32;35019;-75
2023/04/25 08:14:07;;;;;;;;;;;;;;;13.02;72.66;98889.34;4465301;32;32911;-76
2023/04/25 08:16:35;;;;;;;;;;;;;;;12.85;72.11;98891.62;4450439;32;34117;-75
2023/04/25 08:19:02;;;;;;;;;;;;;;;12.67;72.33;98898.19;4467670;32;34287;-76
2023/04/25 08:21:31;;;;;;;;;;;;;;;12.70;72.74;98894.75;4456201;32;34482;-76
2023/04/25 08:23:59;;;;;;;;;;;;;;;12.86;72.22;98890.75;4469193;32;33563;-75
2023/04/25 08:26:27;;;;;;;;;;;;;;;12.65;71.89;98896.37;4463366;32;34584;-75
2023/04/25 08:28:55;;;;;;;;;;;;;;;12.75;71.96;98898.34;4468670;32;34250;-75
2023/04/25 08:31:22;;;;;;;;;;;;;;;12.49;72.49;98902.94;4467831;32;34221;-75
2023/04/25 08:33:51;;;;;;;;;;;;;;;12.54;72.31;98899.62;4464412;32;33693;-75
2023/04/25 08:36:19;;;;;;;;;;;;;;;12.52;72.68;98903.03;4468977;32;34893;-75
2023/04/25 08:39:05;;;;;;;;;;;;;;;12.67;73.19;98916.38;4469563;32;34078;-75
2023/04/25 08:41:33;;;;;;;;;;;;;;;12.84;72.19;98905.44;4468171;32;34184;-76
2023/04/25 08:44:00;;;;;;;;;;;;;;;12.70;71.50;98911.22;4465585;32;33667;-75
2023/04/25 08:46:28;;;;;;;;;;;;;;;12.81;72.99;98916.66;4450588;32;33927;-77
2023/04/25 08:48:57;;;;;;;;;;;;;;;12.68;72.55;98907.72;4445109;32;34122;-76
2023/04/25 08:51:25;;;;;;;;;;;;;;;12.50;71.52;98918.56;4453475;32;34016;-76
2023/04/25 08:53:52;;;;;;;;;;;;;;;12.38;72.49;98924.38;4455616;32;33631;-76
2023/04/25 08:56:24;;;;;;;;;;;;;;;12.42;72.34;98934.81;4468854;32;34236;-75
2023/04/25 08:58:52;;;;;;;;;;;;;;;12.46;71.98;98932.34;4468634;32;33799;-76
2023/04/25 09:01:19;;;;;;;;;;;;;;;12.72;70.90;98935.50;4466934;32;34927;-76
2023/04/25 09:03:47;;;;;;;;;;;;;;;12.70;72.00;98926.81;4467322;32;34170;-76
2023/04/25 09:06:16;;;;;;;;;;;;;;;12.83;72.63;98932.28;4460769;32;34342;-75
2023/04/25 09:08:43;;;;;;;;;;;;;;;12.78;72.36;98935.63;4440921;32;34764;-77
2023/04/25 09:11:12;;;;;;;;;;;;;;;12.68;71.98;98932.81;4467631;32;34583;-75
2023/04/25 09:13:40;;;;;;;;;;;;;;;12.61;72.54;98936.97;4460667;32;34254;-77
2023/04/25 09:16:09;;;;;;;;;;;;;;;12.34;72.62;98932.94;4466670;32;32411;-78
2023/04/25 09:18:37;;;;;;;;;;;;;;;12.59;70.87;98936.97;4450193;32;34878;-77
2023/04/25 09:21:06;;;;;;;;;;;;;;;12.79;72.04;98927.00;4449938;32;34372;-76
2023/04/25 09:23:44;;;;;;;;;;;;;;;12.99;71.00;98921.34;4455184;32;33910;-77
2023/04/25 09:26:16;;;;;;;;;;;;;;;13.18;69.57;98920.88;4464844;32;33715;-75
2023/04/25 09:28:45;;;;;;;;;;;;;;;13.14;69.95;98919.06;4453459;32;33907;-76
2023/04/25 09:31:26;;;;;;;;;;;;;;;12.79;70.43;98921.81;4452500;32;34291;-78
2023/04/25 09:34:00;;;;;;;;;;;;;;;13.02;70.22;98918.84;4436849;32;33371;-77
2023/04/25 09:36:29;;;;;;;;;;;;;;;12.87;70.54;98910.72;4435529;32;34760;-76
2023/04/25 09:38:58;;;;;;;;;;;;;;;12.97;70.49;98910.91;4450987;32;34798;-77
2023/04/25 09:41:25;;;;;;;;;;;;;;;13.10;69.39;98906.88;4450542;32;34514;-76
2023/04/25 09:43:56;;;;;;;;;;;;;;;13.29;67.33;98909.81;4442063;32;34099;-77
2023/04/25 09:46:25;;;;;;;;;;;;;;;12.96;68.69;98916.09;4439041;32;33950;-77
2023/04/25 09:48:53;;;;;;;;;;;;;;;13.31;68.11;98921.19;4444376;32;33397;-78
2023/04/25 09:51:21;;;;;;;;;;;;;;;13.39;66.71;98898.78;4446747;32;35173;-78
2023/04/25 09:53:52;;;;;;;;;;;;;;;13.50;66.13;98915.50;4457545;32;33226;-77
2023/04/25 09:56:20;;;;;;;;;;;;;;;13.43;66.80;98918.81;4455309;32;33947;-77
2023/04/25 09:58:48;;;;;;;;;;;;;;;13.39;66.14;98923.94;4455257;32;34944;-77
2023/04/25 10:01:15;;;;;;;;;;;;;;;13.60;66.55;98928.63;4446828;32;35093;-78
2023/04/25 10:03:43;;;;;;;;;;;;;;;13.87;65.17;98918.75;4451897;32;33667;-76
2023/04/25 10:06:13;;;;;;;;;;;;;;;13.90;65.97;98924.00;4441404;32;34852;-77
2023/04/25 10:08:40;;;;;;;;;;;;;;;13.94;64.08;98920.59;4451864;32;34751;-80
2023/04/25 10:11:08;;;;;;;;;;;;;;;13.75;65.94;98918.50;4451660;32;34525;-79
2023/04/25 10:13:35;;;;;;;;;;;;;;;14.09;64.29;98919.09;4458292;32;33991;-75
2023/04/25 10:16:03;;;;;;;;;;;;;;;14.27;63.03;98924.59;4463469;32;33870;-77
2023/04/25 10:18:32;;;;;;;;;;;;;;;14.35;62.73;98923.00;4468997;32;34694;-78
2023/04/25 10:21:00;;;;;;;;;;;;;;;14.30;62.38;98924.66;4458631;32;34351;-78
2023/04/25 10:23:27;;;;;;;;;;;;;;;13.99;62.87;98919.81;4462806;32;34494;-78
2023/04/25 10:25:55;;;;;;;;;;;;;;;13.76;62.72;98920.28;4465033;32;34271;-77
2023/04/25 10:28:23;;;;;;;;;;;;;;;13.93;61.85;98918.84;4467509;32;34697;-78
2023/04/25 10:30:56;;;;;;;;;;;;;;;13.89;62.33;98911.84;4469892;32;33722;-75
2023/04/25 10:33:34;;;;;;;;;;;;;;;14.32;61.62;98925.56;4441026;32;32714;-79
2023/04/25 10:36:11;;;;;;;;;;;;;;;14.13;61.24;98913.97;4466952;32;33626;-78
2023/04/25 10:38:39;;;;;;;;;;;;;;;14.66;61.07;98907.84;4471687;32;34169;-78
2023/04/25 10:41:08;;;;;;;;;;;;;;;14.44;60.58;98924.00;4463276;32;34323;-78
2023/04/25 10:43:37;;;;;;;;;;;;;;;14.43;60.93;98919.63;4464276;32;34047;-79
2023/04/25 10:46:23;;;;;;;;;;;;;;;14.58;59.24;98924.22;4470379;32;34157;-78
2023/04/25 10:48:51;;;;;;;;;;;;;;;14.71;58.92;98911.37;4466423;32;33949;-77
2023/04/25 10:51:45;;;;;;;;;;;;;;;15.03;59.14;98913.56;4466263;32;34146;-78
2023/04/25 10:54:22;;;;;;;;;;;;;;;14.90;56.68;98919.47;4455853;32;33461;-78
2023/04/25 10:56:50;;;;;;;;;;;;;;;15.07;56.43;98912.75;4453079;32;33994;-77
2023/04/25 10:59:18;;;;;;;;;;;;;;;14.87;53.69;98906.38;4454812;32;33912;-79
2023/04/25 11:01:46;;;;;;;;;;;;;;;14.66;53.86;98922.59;4468941;32;34278;-78
2023/04/25 11:04:24;;;;;;;;;;;;;;;15.09;53.00;98913.63;4470195;32;33969;-76
2023/04/25 11:06:55;;;;;;;;;;;;;;;15.14;51.04;98917.19;4467704;32;34558;-78
2023/04/25 11:09:37;;;;;;;;;;;;;;;15.41;51.41;98926.16;4470714;32;34136;-77
2023/04/25 11:12:05;;;;;;;;;;;;;;;15.53;52.27;98912.41;4467864;32;34249;-76
2023/04/25 11:14:32;;;;;;;;;;;;;;;15.68;52.79;98919.50;4470112;32;33200;-78
2023/04/25 11:17:00;;;;;;;;;;;;;;;15.99;52.16;98931.12;4468706;32;34002;-77
2023/04/25 11:19:28;;;;;;;;;;;;;;;15.74;48.87;98922.19;4467977;32;35015;-77
2023/04/25 11:21:56;;;;;;;;;;;;;;;15.74;49.59;98930.03;4467078;32;33722;-77
2023/04/25 11:24:27;;;;;;;;;;;;;;;15.75;51.06;98921.34;4454361;32;34490;-77
2023/04/25 11:26:55;;;;;;;;;;;;;;;15.95;50.30;98923.25;4450660;32;32823;-75
2023/04/25 11:29:23;;;;;;;;;;;;;;;16.27;51.18;98932.25;4464181;32;34470;-78
2023/04/25 11:31:51;;;;;;;;;;;;;;;15.77;49.63;98937.03;4464814;32;34953;-78
2023/04/25 11:34:19;;;;;;;;;;;;;;;15.50;49.10;98941.06;4462561;32;35997;-76
2023/04/25 11:36:46;;;;;;;;;;;;;;;14.89;47.88;98941.16;4453584;32;33738;-78
2023/04/25 11:39:15;;;;;;;;;;;;;;;14.64;49.33;98955.59;4451476;32;34163;-76
2023/04/25 11:41:42;;;;;;;;;;;;;;;14.93;50.30;98953.38;4467180;32;34576;-76
2023/04/25 11:44:12;;;;;;;;;;;;;;;14.81;51.17;98963.66;4479005;32;33001;-75
2023/04/25 11:46:39;;;;;;;;;;;;;;;14.86;51.35;98962.88;4455375;32;34894;-76
2023/04/25 11:49:08;;;;;;;;;;;;;;;15.36;51.25;98966.13;4468949;32;34976;-75
2023/04/25 11:51:39;;;;;;;;;;;;;;;15.34;51.51;98960.91;4455927;32;34011;-76
2023/04/25 11:54:07;;;;;;;;;;;;;;;15.57;50.53;98963.78;4456089;32;33221;-78
2023/04/25 11:56:34;;;;;;;;;;;;;;;15.37;50.92;98950.47;4457054;32;34388;-78
2023/04/25 11:59:05;;;;;;;;;;;;;;;15.78;49.31;98962.25;4464474;32;33213;-78
2023/04/25 12:01:37;;;;;;;;;;;;;;;15.95;49.96;98962.44;4468959;32;35267;-77
2023/04/25 12:04:11;;;;;;;;;;;;;;;16.45;48.79;98962.00;4442137;32;34275;-76
2023/04/25 12:06:40;;;;;;;;;;;;;;;16.07;47.66;98967.78;4464074;32;35149;-76
2023/04/25 12:09:08;;;;;;;;;;;;;;;16.17;46.52;98967.00;4453430;32;33924;-77
2023/04/25 12:11:43;;;;;;;;;;;;;;;16.16;46.23;98965.25;4465306;32;34432;-78
2023/04/25 12:14:11;;;;;;;;;;;;;;;16.19;47.63;98975.75;4466228;32;33059;-78
2023/04/25 12:16:45;;;;;;;;;;;;;;;16.12;45.56;98959.13;4451179;32;34643;-77
2023/04/25 12:19:13;;;;;;;;;;;;;;;15.57;43.52;98962.88;4448848;32;34124;-76
2023/04/25 12:21:41;;;;;;;;;;;;;;;15.92;44.51;98956.34;4441891;32;35638;-78
2023/04/25 12:24:25;;;;;;;;;;;;;;;16.01;46.20;98959.88;4438854;32;34787;-79
2023/04/25 12:26:54;;;;;;;;;;;;;;;15.50;44.41;98952.38;4432502;32;34889;-77
2023/04/25 12:29:22;;;;;;;;;;;;;;;15.63;45.87;98948.16;4444081;32;34036;-76
2023/04/25 12:31:51;;;;;;;;;;;;;;;15.81;46.74;98952.72;4431713;32;33604;-76
2023/04/25 12:34:19;;;;;;;;;;;;;;;15.56;45.66;98948.97;4449465;32;33534;-76
2023/04/25 12:36:46;;;;;;;;;;;;;;;15.39;48.17;98951.38;4444867;32;33239;-76
2023/04/25 12:39:17;;;;;;;;;;;;;;;15.84;46.38;98936.22;4441720;32;34584;-77
2023/04/25 12:41:45;;;;;;;;;;;;;;;15.96;46.67;98943.31;4449423;32;33737;-76
2023/04/25 12:44:13;;;;;;;;;;;;;;;16.14;46.58;98939.97;4436342;32;34020;-77
2023/04/25 12:46:41;;;;;;;;;;;;;;;15.89;46.66;98930.16;4432645;32;34092;-77
2023/04/25 12:49:08;;;;;;;;;;;;;;;15.89;46.86;98927.56;4459383;32;34177;-76
2023/04/25 12:51:55;;;;;;;;;;;;;;;16.06;46.89;98929.47;4446666;32;34543;-77
2023/04/25 12:54:23;;;;;;;;;;;;;;;16.49;45.63;98927.19;4440608;32;33607;-76